sensor_id;sensor_type;location;lat;lon;timestamp;temperature;humidity
37050;DHT22;22958;51.232;6.826;2023-04-20T00:00:15;8.70;70.10
37050;DHT22;22958;51.232;6.826;2023-04-20T00:02:42;8.70;70.10
37050;DHT22;22958;51.232;6.826;2023-04-20T00:05:08;8.70;70.20
37050;DHT22;22958;51.232;6.826;2023-04-20T00:07:37;8.70;70.60
37050;DHT22;22958;51.232;6.826;2023-04-20T00:10:06;8.60;70.80
37050;DHT22;22958;51.232;6.826;2023-04-20T00:12:32;8.60;71.00
37050;DHT22;22958;51.232;6.826;2023-04-20T00:14:57;8.60;70.50
37050;DHT22;22958;51.232;6.826;2023-04-20T00:17:23;8.60;70.60
37050;DHT22;22958;51.232;6.826;2023-04-20T00:19:49;8.60;70.60
37050;DHT22;22958;51.232;6.826;2023-04-20T00:22:15;8.60;70.80
37050;DHT22;22958;51.232;6.826;2023-04-20T00:24:40;8.60;70.00
37050;DHT22;22958;51.232;6.826;2023-04-20T00:27:06;8.70;69.70
37050;DHT22;22958;51.232;6.826;2023-04-20T00:29:32;8.70;69.50
37050;DHT22;22958;51.232;6.826;2023-04-20T00:31:57;8.70;69.50
37050;DHT22;22958;51.232;6.826;2023-04-20T00:34:23;8.60;69.30
37050;DHT22;22958;51.232;6.826;2023-04-20T00:36:49;8.60;69.20
37050;DHT22;22958;51.232;6.826;2023-04-20T00:39:14;8.60;69.20
37050;DHT22;22958;51.232;6.826;2023-04-20T00:41:40;8.60;68.80
37050;DHT22;22958;51.232;6.826;2023-04-20T00:44:06;8.60;68.90
37050;DHT22;22958;51.232;6.826;2023-04-20T00:46:38;8.70;68.10
37050;DHT22;22958;51.232;6.826;2023-04-20T00:49:05;8.70;68.00
37050;DHT22;22958;51.232;6.826;2023-04-20T00:51:32;8.70;68.00
37050;DHT22;22958;51.232;6.826;2023-04-20T00:53:58;8.60;67.70
37050;DHT22;22958;51.232;6.826;2023-04-20T00:56:24;8.60;67.50
37050;DHT22;22958;51.232;6.826;2023-04-20T00:58:50;8.60;67.70
37050;DHT22;22958;51.232;6.826;2023-04-20T01:01:15;8.60;67.90
37050;DHT22;22958;51.232;6.826;2023-04-20T01:03:44;8.50;67.70
37050;DHT22;22958;51.232;6.826;2023-04-20T01:06:12;8.50;68.10
37050;DHT22;22958;51.232;6.826;2023-04-20T01:08:58;8.40;67.80
37050;DHT22;22958;51.232;6.826;2023-04-20T01:11:24;8.40;68.20
37050;DHT22;22958;51.232;6.826;2023-04-20T01:13:49;8.30;68.40
37050;DHT22;22958;51.232;6.826;2023-04-20T01:16:15;8.20;68.70
37050;DHT22;22958;51.232;6.826;2023-04-20T01:18:44;8.20;68.50
37050;DHT22;22958;51.232;6.826;2023-04-20T01:21:12;8.10;68.80
37050;DHT22;22958;51.232;6.826;2023-04-20T01:23:38;8.10;68.60
37050;DHT22;22958;51.232;6.826;2023-04-20T01:26:13;8.00;68.90
37050;DHT22;22958;51.232;6.826;2023-04-20T01:28:39;7.90;69.20
37050;DHT22;22958;51.232;6.826;2023-04-20T01:31:06;7.80;69.20
37050;DHT22;22958;51.232;6.826;2023-04-20T01:33:32;7.80;69.20
37050;DHT22;22958;51.232;6.826;2023-04-20T01:35:58;7.70;69.10
37050;DHT22;22958;51.232;6.826;2023-04-20T01:38:24;7.70;69.40
37050;DHT22;22958;51.232;6.826;2023-04-20T01:40:50;7.70;69.60
37050;DHT22;22958;51.232;6.826;2023-04-20T01:43:18;7.60;69.70
37050;DHT22;22958;51.232;6.826;2023-04-20T01:45:44;7.70;69.80
37050;DHT22;22958;51.232;6.826;2023-04-20T01:48:09;7.70;69.50
37050;DHT22;22958;51.232;6.826;2023-04-20T01:50:35;7.60;70.00
37050;DHT22;22958;51.232;6.826;2023-04-20T01:53:01;7.60;69.90
37050;DHT22;22958;51.232;6.826;2023-04-20T01:55:26;7.60;70.70
37050;DHT22;22958;51.232;6.826;2023-04-20T01:57:52;7.60;69.70
37050;DHT22;22958;51.232;6.826;2023-04-20T02:00:17;7.60;69.60
37050;DHT22;22958;51.232;6.826;2023-04-20T02:02:43;7.70;69.40
37050;DHT22;22958;51.232;6.826;2023-04-20T02:05:09;7.70;69.40
37050;DHT22;22958;51.232;6.826;2023-04-20T02:07:34;7.70;69.60
37050;DHT22;22958;51.232;6.826;2023-04-20T02:10:00;7.80;69.40
37050;DHT22;22958;51.232;6.826;2023-04-20T02:12:25;7.70;69.50
37050;DHT22;22958;51.232;6.826;2023-04-20T02:14:51;7.60;70.00
37050;DHT22;22958;51.232;6.826;2023-04-20T02:17:16;7.60;70.40
37050;DHT22;22958;51.232;6.826;2023-04-20T02:19:42;7.50;71.80
37050;DHT22;22958;51.232;6.826;2023-04-20T02:22:08;7.50;71.50
37050;DHT22;22958;51.232;6.826;2023-04-20T02:24:33;7.50;71.70
37050;DHT22;22958;51.232;6.826;2023-04-20T02:26:59;7.50;72.00
37050;DHT22;22958;51.232;6.826;2023-04-20T02:29:26;7.50;72.20
37050;DHT22;22958;51.232;6.826;2023-04-20T02:31:51;7.50;71.20
37050;DHT22;22958;51.232;6.826;2023-04-20T02:34:17;7.40;70.90
37050;DHT22;22958;51.232;6.826;2023-04-20T02:36:42;7.40;71.10
37050;DHT22;22958;51.232;6.826;2023-04-20T02:39:08;7.50;71.20
37050;DHT22;22958;51.232;6.826;2023-04-20T02:41:34;7.50;71.50
37050;DHT22;22958;51.232;6.826;2023-04-20T02:44:00;7.50;72.40
37050;DHT22;22958;51.232;6.826;2023-04-20T02:46:25;7.50;73.00
37050;DHT22;22958;51.232;6.826;2023-04-20T02:48:51;7.50;71.70
37050;DHT22;22958;51.232;6.826;2023-04-20T02:51:16;7.50;71.90
37050;DHT22;22958;51.232;6.826;2023-04-20T02:53:42;7.50;72.20
37050;DHT22;22958;51.232;6.826;2023-04-20T02:56:07;7.50;72.40
37050;DHT22;22958;51.232;6.826;2023-04-20T02:58:33;7.50;72.70
37050;DHT22;22958;51.232;6.826;2023-04-20T03:01:02;7.50;73.00
37050;DHT22;22958;51.232;6.826;2023-04-20T03:03:28;7.50;73.20
37050;DHT22;22958;51.232;6.826;2023-04-20T03:05:54;7.50;73.50
37050;DHT22;22958;51.232;6.826;2023-04-20T03:08:20;7.60;73.70
37050;DHT22;22958;51.232;6.826;2023-04-20T03:10:46;7.60;74.10
37050;DHT22;22958;51.232;6.826;2023-04-20T03:13:11;7.60;74.40
37050;DHT22;22958;51.232;6.826;2023-04-20T03:15:37;7.50;74.60
37050;DHT22;22958;51.232;6.826;2023-04-20T03:18:02;7.50;75.10
37050;DHT22;22958;51.232;6.826;2023-04-20T03:20:28;7.50;76.30
37050;DHT22;22958;51.232;6.826;2023-04-20T03:22:54;7.50;75.90
37050;DHT22;22958;51.232;6.826;2023-04-20T03:25:20;7.50;76.50
37050;DHT22;22958;51.232;6.826;2023-04-20T03:27:45;7.50;76.80
37050;DHT22;22958;51.232;6.826;2023-04-20T03:30:12;7.60;77.50
37050;DHT22;22958;51.232;6.826;2023-04-20T03:32:37;7.60;77.40
37050;DHT22;22958;51.232;6.826;2023-04-20T03:35:04;7.60;78.10
37050;DHT22;22958;51.232;6.826;2023-04-20T03:37:30;7.60;78.50
37050;DHT22;22958;51.232;6.826;2023-04-20T03:39:55;7.60;79.30
37050;DHT22;22958;51.232;6.826;2023-04-20T03:42:21;7.60;79.80
37050;DHT22;22958;51.232;6.826;2023-04-20T03:44:46;7.60;80.20
37050;DHT22;22958;51.232;6.826;2023-04-20T03:47:12;7.60;80.80
37050;DHT22;22958;51.232;6.826;2023-04-20T03:49:37;7.60;81.00
37050;DHT22;22958;51.232;6.826;2023-04-20T03:52:03;7.60;81.30
37050;DHT22;22958;51.232;6.826;2023-04-20T03:54:29;7.60;81.70
37050;DHT22;22958;51.232;6.826;2023-04-20T03:56:55;7.60;82.10
37050;DHT22;22958;51.232;6.826;2023-04-20T03:59:20;7.60;82.40
37050;DHT22;22958;51.232;6.826;2023-04-20T04:01:46;7.60;82.90
37050;DHT22;22958;51.232;6.826;2023-04-20T04:04:11;7.60;83.50
37050;DHT22;22958;51.232;6.826;2023-04-20T04:06:37;7.60;84.00
37050;DHT22;22958;51.232;6.826;2023-04-20T04:09:03;7.60;84.40
37050;DHT22;22958;51.232;6.826;2023-04-20T04:11:28;7.60;84.60
37050;DHT22;22958;51.232;6.826;2023-04-20T04:13:56;7.60;84.70
37050;DHT22;22958;51.232;6.826;2023-04-20T04:16:21;7.60;84.70
37050;DHT22;22958;51.232;6.826;2023-04-20T04:18:47;7.60;85.70
37050;DHT22;22958;51.232;6.826;2023-04-20T04:21:12;7.60;86.80
37050;DHT22;22958;51.232;6.826;2023-04-20T04:23:38;7.60;86.50
37050;DHT22;22958;51.232;6.826;2023-04-20T04:26:05;7.60;86.70
37050;DHT22;22958;51.232;6.826;2023-04-20T04:28:31;7.60;86.80
37050;DHT22;22958;51.232;6.826;2023-04-20T04:30:56;7.50;86.80
37050;DHT22;22958;51.232;6.826;2023-04-20T04:33:22;7.60;87.10
37050;DHT22;22958;51.232;6.826;2023-04-20T04:35:48;7.60;87.80
37050;DHT22;22958;51.232;6.826;2023-04-20T04:38:14;7.60;89.00
37050;DHT22;22958;51.232;6.826;2023-04-20T04:40:40;7.60;89.40
37050;DHT22;22958;51.232;6.826;2023-04-20T04:43:07;7.70;90.50
37050;DHT22;22958;51.232;6.826;2023-04-20T04:45:33;7.70;90.70
37050;DHT22;22958;51.232;6.826;2023-04-20T04:48:01;7.80;92.00
37050;DHT22;22958;51.232;6.826;2023-04-20T04:50:27;7.70;93.30
37050;DHT22;22958;51.232;6.826;2023-04-20T04:52:52;7.80;95.40
37050;DHT22;22958;51.232;6.826;2023-04-20T04:55:18;7.80;97.90
37050;DHT22;22958;51.232;6.826;2023-04-20T04:57:43;7.90;99.90
37050;DHT22;22958;51.232;6.826;2023-04-20T05:00:09;7.90;99.90
37050;DHT22;22958;51.232;6.826;2023-04-20T05:02:36;7.90;99.90
37050;DHT22;22958;51.232;6.826;2023-04-20T05:05:02;7.90;99.90
37050;DHT22;22958;51.232;6.826;2023-04-20T05:07:28;7.90;99.90
37050;DHT22;22958;51.232;6.826;2023-04-20T05:09:53;7.90;99.90
37050;DHT22;22958;51.232;6.826;2023-04-20T05:12:18;8.00;99.90
37050;DHT22;22958;51.232;6.826;2023-04-20T05:14:44;8.00;99.90
37050;DHT22;22958;51.232;6.826;2023-04-20T05:17:10;7.90;99.90
37050;DHT22;22958;51.232;6.826;2023-04-20T05:19:36;8.00;99.90
37050;DHT22;22958;51.232;6.826;2023-04-20T05:22:01;8.00;99.90
37050;DHT22;22958;51.232;6.826;2023-04-20T05:24:27;8.00;99.90
37050;DHT22;22958;51.232;6.826;2023-04-20T05:26:52;8.10;99.90
37050;DHT22;22958;51.232;6.826;2023-04-20T05:29:18;8.20;99.90
37050;DHT22;22958;51.232;6.826;2023-04-20T05:31:44;8.20;99.90
37050;DHT22;22958;51.232;6.826;2023-04-20T05:34:09;8.20;99.90
37050;DHT22;22958;51.232;6.826;2023-04-20T05:36:35;8.20;99.90
37050;DHT22;22958;51.232;6.826;2023-04-20T05:39:01;8.30;99.90
37050;DHT22;22958;51.232;6.826;2023-04-20T05:41:27;8.30;99.90
37050;DHT22;22958;51.232;6.826;2023-04-20T05:43:53;8.40;99.90
37050;DHT22;22958;51.232;6.826;2023-04-20T05:46:19;8.30;99.90
37050;DHT22;22958;51.232;6.826;2023-04-20T05:48:45;8.40;99.90
37050;DHT22;22958;51.232;6.826;2023-04-20T05:51:11;8.40;99.90
37050;DHT22;22958;51.232;6.826;2023-04-20T05:53:36;8.40;99.90
37050;DHT22;22958;51.232;6.826;2023-04-20T05:56:02;8.30;99.90
37050;DHT22;22958;51.232;6.826;2023-04-20T05:58:28;8.40;99.90
37050;DHT22;22958;51.232;6.826;2023-04-20T06:00:54;8.40;99.90
37050;DHT22;22958;51.232;6.826;2023-04-20T06:03:20;8.40;99.90
37050;DHT22;22958;51.232;6.826;2023-04-20T06:05:45;8.40;99.90
37050;DHT22;22958;51.232;6.826;2023-04-20T06:08:10;8.60;99.90
37050;DHT22;22958;51.232;6.826;2023-04-20T06:10:37;8.50;99.90
37050;DHT22;22958;51.232;6.826;2023-04-20T06:13:03;8.50;99.90
37050;DHT22;22958;51.232;6.826;2023-04-20T06:15:28;8.40;99.90
37050;DHT22;22958;51.232;6.826;2023-04-20T06:17:54;8.50;99.90
37050;DHT22;22958;51.232;6.826;2023-04-20T06:20:19;8.50;99.90
37050;DHT22;22958;51.232;6.826;2023-04-20T06:22:45;8.40;99.90
37050;DHT22;22958;51.232;6.826;2023-04-20T06:25:12;8.30;99.90
37050;DHT22;22958;51.232;6.826;2023-04-20T06:27:38;8.30;99.90
37050;DHT22;22958;51.232;6.826;2023-04-20T06:30:04;8.30;99.90
37050;DHT22;22958;51.232;6.826;2023-04-20T06:32:30;8.30;99.90
37050;DHT22;22958;51.232;6.826;2023-04-20T06:34:56;8.40;99.90
37050;DHT22;22958;51.232;6.826;2023-04-20T06:37:21;8.30;99.90
37050;DHT22;22958;51.232;6.826;2023-04-20T06:39:47;8.20;99.90
37050;DHT22;22958;51.232;6.826;2023-04-20T06:42:12;8.30;99.90
37050;DHT22;22958;51.232;6.826;2023-04-20T06:44:38;8.30;99.90
37050;DHT22;22958;51.232;6.826;2023-04-20T06:47:05;8.40;99.90
37050;DHT22;22958;51.232;6.826;2023-04-20T06:49:30;8.40;99.90
37050;DHT22;22958;51.232;6.826;2023-04-20T06:51:56;8.30;99.90
37050;DHT22;22958;51.232;6.826;2023-04-20T06:54:21;8.40;99.90
37050;DHT22;22958;51.232;6.826;2023-04-20T06:56:47;8.40;99.90
37050;DHT22;22958;51.232;6.826;2023-04-20T06:59:12;8.50;99.90
37050;DHT22;22958;51.232;6.826;2023-04-20T07:01:41;8.30;99.90
37050;DHT22;22958;51.232;6.826;2023-04-20T07:04:07;8.30;99.90
37050;DHT22;22958;51.232;6.826;2023-04-20T07:06:32;8.40;99.90
37050;DHT22;22958;51.232;6.826;2023-04-20T07:08:58;8.50;99.90
37050;DHT22;22958;51.232;6.826;2023-04-20T07:11:24;8.60;99.90
37050;DHT22;22958;51.232;6.826;2023-04-20T07:13:49;8.60;99.90
37050;DHT22;22958;51.232;6.826;2023-04-20T07:16:15;8.40;99.90
37050;DHT22;22958;51.232;6.826;2023-04-20T07:18:41;8.30;99.90
37050;DHT22;22958;51.232;6.826;2023-04-20T07:21:06;8.40;99.90
37050;DHT22;22958;51.232;6.826;2023-04-20T07:23:32;8.40;99.90
37050;DHT22;22958;51.232;6.826;2023-04-20T07:25:57;8.40;99.90
37050;DHT22;22958;51.232;6.826;2023-04-20T07:28:23;8.30;99.90
37050;DHT22;22958;51.232;6.826;2023-04-20T07:30:48;8.50;99.90
37050;DHT22;22958;51.232;6.826;2023-04-20T07:33:14;8.30;99.90
37050;DHT22;22958;51.232;6.826;2023-04-20T07:35:39;8.40;99.90
37050;DHT22;22958;51.232;6.826;2023-04-20T07:38:05;8.60;99.90
37050;DHT22;22958;51.232;6.826;2023-04-20T07:40:30;8.60;99.90
37050;DHT22;22958;51.232;6.826;2023-04-20T07:42:56;8.60;99.90
37050;DHT22;22958;51.232;6.826;2023-04-20T07:45:21;8.60;99.90
37050;DHT22;22958;51.232;6.826;2023-04-20T07:47:48;8.50;99.90
37050;DHT22;22958;51.232;6.826;2023-04-20T07:50:15;8.40;99.90
37050;DHT22;22958;51.232;6.826;2023-04-20T07:52:41;8.40;99.90
37050;DHT22;22958;51.232;6.826;2023-04-20T07:55:09;8.40;99.90
37050;DHT22;22958;51.232;6.826;2023-04-20T07:57:38;8.40;99.90
37050;DHT22;22958;51.232;6.826;2023-04-20T08:00:05;8.40;99.90
37050;DHT22;22958;51.232;6.826;2023-04-20T08:02:34;8.40;99.90
37050;DHT22;22958;51.232;6.826;2023-04-20T08:05:01;8.60;99.90
37050;DHT22;22958;51.232;6.826;2023-04-20T08:07:27;8.60;99.90
37050;DHT22;22958;51.232;6.826;2023-04-20T08:09:53;8.50;99.90
37050;DHT22;22958;51.232;6.826;2023-04-20T08:12:18;8.50;99.90
37050;DHT22;22958;51.232;6.826;2023-04-20T08:14:43;8.60;99.90
37050;DHT22;22958;51.232;6.826;2023-04-20T08:17:09;8.60;99.90
37050;DHT22;22958;51.232;6.826;2023-04-20T08:19:35;8.60;99.90
37050;DHT22;22958;51.232;6.826;2023-04-20T08:22:01;8.50;99.90
37050;DHT22;22958;51.232;6.826;2023-04-20T08:24:26;8.60;99.90
37050;DHT22;22958;51.232;6.826;2023-04-20T08:26:52;8.70;99.90
37050;DHT22;22958;51.232;6.826;2023-04-20T08:29:17;8.70;99.90
37050;DHT22;22958;51.232;6.826;2023-04-20T08:31:43;8.80;99.90
37050;DHT22;22958;51.232;6.826;2023-04-20T08:34:08;8.90;99.90
37050;DHT22;22958;51.232;6.826;2023-04-20T08:36:34;8.60;99.90
37050;DHT22;22958;51.232;6.826;2023-04-20T08:39:07;8.60;99.90
37050;DHT22;22958;51.232;6.826;2023-04-20T08:41:33;8.50;99.90
37050;DHT22;22958;51.232;6.826;2023-04-20T08:43:59;8.40;99.90
37050;DHT22;22958;51.232;6.826;2023-04-20T08:46:25;8.40;99.90
37050;DHT22;22958;51.232;6.826;2023-04-20T08:48:52;8.50;99.90
37050;DHT22;22958;51.232;6.826;2023-04-20T08:51:20;8.70;99.90
37050;DHT22;22958;51.232;6.826;2023-04-20T08:53:46;8.80;99.90
37050;DHT22;22958;51.232;6.826;2023-04-20T08:56:12;8.70;99.90
37050;DHT22;22958;51.232;6.826;2023-04-20T08:58:38;8.60;99.90
37050;DHT22;22958;51.232;6.826;2023-04-20T09:01:07;8.40;99.90
37050;DHT22;22958;51.232;6.826;2023-04-20T09:03:37;8.40;99.90
37050;DHT22;22958;51.232;6.826;2023-04-20T09:06:04;8.40;99.90
37050;DHT22;22958;51.232;6.826;2023-04-20T09:08:39;8.40;99.90
37050;DHT22;22958;51.232;6.826;2023-04-20T09:11:05;8.30;99.90
37050;DHT22;22958;51.232;6.826;2023-04-20T09:13:31;8.40;99.90
37050;DHT22;22958;51.232;6.826;2023-04-20T09:16:07;8.30;99.90
37050;DHT22;22958;51.232;6.826;2023-04-20T09:18:33;8.30;99.90
37050;DHT22;22958;51.232;6.826;2023-04-20T09:21:07;8.30;99.90
37050;DHT22;22958;51.232;6.826;2023-04-20T09:23:33;8.20;99.90
37050;DHT22;22958;51.232;6.826;2023-04-20T09:25:58;8.40;99.90
37050;DHT22;22958;51.232;6.826;2023-04-20T09:28:34;8.50;99.90
37050;DHT22;22958;51.232;6.826;2023-04-20T09:31:03;8.70;99.90
37050;DHT22;22958;51.232;6.826;2023-04-20T09:33:28;8.80;99.90
37050;DHT22;22958;51.232;6.826;2023-04-20T09:36:02;9.30;99.90
37050;DHT22;22958;51.232;6.826;2023-04-20T09:38:28;9.60;99.90
37050;DHT22;22958;51.232;6.826;2023-04-20T09:40:57;9.70;99.90
37050;DHT22;22958;51.232;6.826;2023-04-20T09:43:27;10.10;99.90
37050;DHT22;22958;51.232;6.826;2023-04-20T09:45:53;10.20;99.90
37050;DHT22;22958;51.232;6.826;2023-04-20T09:48:20;10.10;99.90
37050;DHT22;22958;51.232;6.826;2023-04-20T09:50:47;9.90;99.90
37050;DHT22;22958;51.232;6.826;2023-04-20T09:53:15;10.40;99.90
37050;DHT22;22958;51.232;6.826;2023-04-20T09:55:45;10.60;99.90
37050;DHT22;22958;51.232;6.826;2023-04-20T09:58:12;11.00;99.90
37050;DHT22;22958;51.232;6.826;2023-04-20T10:00:38;11.00;99.90
37050;DHT22;22958;51.232;6.826;2023-04-20T10:03:04;11.40;99.90
37050;DHT22;22958;51.232;6.826;2023-04-20T10:05:36;11.50;99.90
37050;DHT22;22958;51.232;6.826;2023-04-20T10:08:04;11.50;99.90
37050;DHT22;22958;51.232;6.826;2023-04-20T10:10:41;11.60;99.90
37050;DHT22;22958;51.232;6.826;2023-04-20T10:13:07;11.40;99.90
37050;DHT22;22958;51.232;6.826;2023-04-20T10:15:37;11.80;99.90
37050;DHT22;22958;51.232;6.826;2023-04-20T10:18:14;11.60;99.90
37050;DHT22;22958;51.232;6.826;2023-04-20T10:20:41;11.90;99.90
37050;DHT22;22958;51.232;6.826;2023-04-20T10:23:09;12.80;99.90
37050;DHT22;22958;51.232;6.826;2023-04-20T10:25:36;13.00;99.90
37050;DHT22;22958;51.232;6.826;2023-04-20T10:28:04;12.50;99.90
37050;DHT22;22958;51.232;6.826;2023-04-20T10:30:33;12.50;99.90
37050;DHT22;22958;51.232;6.826;2023-04-20T10:33:09;12.70;99.90
37050;DHT22;22958;51.232;6.826;2023-04-20T10:35:43;12.30;99.90
37050;DHT22;22958;51.232;6.826;2023-04-20T10:38:09;12.00;99.90
37050;DHT22;22958;51.232;6.826;2023-04-20T10:40:35;12.00;99.90
37050;DHT22;22958;51.232;6.826;2023-04-20T10:43:01;12.30;99.90
37050;DHT22;22958;51.232;6.826;2023-04-20T10:45:34;12.20;99.90
37050;DHT22;22958;51.232;6.826;2023-04-20T10:48:10;12.60;99.90
37050;DHT22;22958;51.232;6.826;2023-04-20T10:50:36;12.70;99.90
37050;DHT22;22958;51.232;6.826;2023-04-20T10:53:02;12.30;99.90
37050;DHT22;22958;51.232;6.826;2023-04-20T10:55:28;11.90;99.90
37050;DHT22;22958;51.232;6.826;2023-04-20T10:57:54;11.70;99.90
37050;DHT22;22958;51.232;6.826;2023-04-20T11:00:22;11.70;99.90
37050;DHT22;22958;51.232;6.826;2023-04-20T11:02:55;12.40;99.90
37050;DHT22;22958;51.232;6.826;2023-04-20T11:05:23;12.50;99.90
37050;DHT22;22958;51.232;6.826;2023-04-20T11:07:53;13.70;99.90
37050;DHT22;22958;51.232;6.826;2023-04-20T11:10:23;14.70;99.90
37050;DHT22;22958;51.232;6.826;2023-04-20T11:12:49;14.90;99.40
37050;DHT22;22958;51.232;6.826;2023-04-20T11:15:16;15.10;99.00
37050;DHT22;22958;51.232;6.826;2023-04-20T11:17:42;15.10;98.50
37050;DHT22;22958;51.232;6.826;2023-04-20T11:20:10;14.70;98.50
37050;DHT22;22958;51.232;6.826;2023-04-20T11:22:37;14.80;98.70
37050;DHT22;22958;51.232;6.826;2023-04-20T11:25:08;14.50;98.70
37050;DHT22;22958;51.232;6.826;2023-04-20T11:27:34;14.10;99.10
37050;DHT22;22958;51.232;6.826;2023-04-20T11:30:00;13.60;99.90
37050;DHT22;22958;51.232;6.826;2023-04-20T11:32:33;12.90;99.90
37050;DHT22;22958;51.232;6.826;2023-04-20T11:35:03;12.40;99.90
37050;DHT22;22958;51.232;6.826;2023-04-20T11:37:33;12.50;99.90
37050;DHT22;22958;51.232;6.826;2023-04-20T11:40:04;12.60;99.90
37050;DHT22;22958;51.232;6.826;2023-04-20T11:42:32;12.40;99.90
37050;DHT22;22958;51.232;6.826;2023-04-20T11:44:58;12.20;99.90
37050;DHT22;22958;51.232;6.826;2023-04-20T11:47:24;12.00;99.90
37050;DHT22;22958;51.232;6.826;2023-04-20T11:49:50;12.00;99.90
37050;DHT22;22958;51.232;6.826;2023-04-20T11:52:15;11.90;99.90
37050;DHT22;22958;51.232;6.826;2023-04-20T11:54:41;12.10;99.90
37050;DHT22;22958;51.232;6.826;2023-04-20T11:57:06;12.20;99.90
37050;DHT22;22958;51.232;6.826;2023-04-20T11:59:32;12.20;99.90
37050;DHT22;22958;51.232;6.826;2023-04-20T12:01:57;12.20;99.90
37050;DHT22;22958;51.232;6.826;2023-04-20T12:04:25;12.40;99.90
37050;DHT22;22958;51.232;6.826;2023-04-20T12:06:51;13.30;99.90
37050;DHT22;22958;51.232;6.826;2023-04-20T12:09:16;13.30;99.90
37050;DHT22;22958;51.232;6.826;2023-04-20T12:11:42;13.10;99.90
37050;DHT22;22958;51.232;6.826;2023-04-20T12:14:07;12.60;99.90
37050;DHT22;22958;51.232;6.826;2023-04-20T12:16:33;12.40;99.90
37050;DHT22;22958;51.232;6.826;2023-04-20T12:18:58;12.40;99.90
37050;DHT22;22958;51.232;6.826;2023-04-20T12:21:24;12.20;99.90
37050;DHT22;22958;51.232;6.826;2023-04-20T12:23:49;12.30;99.90
37050;DHT22;22958;51.232;6.826;2023-04-20T12:26:15;12.50;99.90
37050;DHT22;22958;51.232;6.826;2023-04-20T12:28:41;12.90;99.90
37050;DHT22;22958;51.232;6.826;2023-04-20T12:31:06;12.80;99.80
37050;DHT22;22958;51.232;6.826;2023-04-20T12:33:32;12.70;99.80
37050;DHT22;22958;51.232;6.826;2023-04-20T12:35:58;12.80;99.90
37050;DHT22;22958;51.232;6.826;2023-04-20T12:38:23;13.20;98.90
37050;DHT22;22958;51.232;6.826;2023-04-20T12:40:49;13.70;97.70
37050;DHT22;22958;51.232;6.826;2023-04-20T12:43:15;13.90;96.40
37050;DHT22;22958;51.232;6.826;2023-04-20T12:45:40;14.40;95.90
37050;DHT22;22958;51.232;6.826;2023-04-20T12:48:06;15.80;94.30
37050;DHT22;22958;51.232;6.826;2023-04-20T12:50:32;17.40;92.30
37050;DHT22;22958;51.232;6.826;2023-04-20T12:52:58;16.60;90.90
37050;DHT22;22958;51.232;6.826;2023-04-20T12:55:24;16.40;91.60
37050;DHT22;22958;51.232;6.826;2023-04-20T12:57:50;16.00;90.80
37050;DHT22;22958;51.232;6.826;2023-04-20T13:00:16;15.30;90.80
37050;DHT22;22958;51.232;6.826;2023-04-20T13:02:42;15.00;90.80
37050;DHT22;22958;51.232;6.826;2023-04-20T13:05:08;14.80;91.40
37050;DHT22;22958;51.232;6.826;2023-04-20T13:07:33;14.70;91.80
37050;DHT22;22958;51.232;6.826;2023-04-20T13:09:59;14.50;92.10
37050;DHT22;22958;51.232;6.826;2023-04-20T13:12:25;14.40;92.40
37050;DHT22;22958;51.232;6.826;2023-04-20T13:14:51;14.40;92.80
37050;DHT22;22958;51.232;6.826;2023-04-20T13:17:16;14.10;93.40
37050;DHT22;22958;51.232;6.826;2023-04-20T13:19:44;13.60;93.70
37050;DHT22;22958;51.232;6.826;2023-04-20T13:22:10;13.20;94.30
37050;DHT22;22958;51.232;6.826;2023-04-20T13:24:36;13.00;95.30
37050;DHT22;22958;51.232;6.826;2023-04-20T13:27:02;12.90;95.20
37050;DHT22;22958;51.232;6.826;2023-04-20T13:29:27;13.00;95.40
37050;DHT22;22958;51.232;6.826;2023-04-20T13:31:54;13.10;95.30
37050;DHT22;22958;51.232;6.826;2023-04-20T13:34:21;14.20;94.60
37050;DHT22;22958;51.232;6.826;2023-04-20T13:36:47;16.60;91.50
37050;DHT22;22958;51.232;6.826;2023-04-20T13:39:13;18.60;87.70
37050;DHT22;22958;51.232;6.826;2023-04-20T13:41:39;18.50;86.40
37050;DHT22;22958;51.232;6.826;2023-04-20T13:44:04;19.00;82.90
37050;DHT22;22958;51.232;6.826;2023-04-20T13:46:32;18.40;82.30
37050;DHT22;22958;51.232;6.826;2023-04-20T13:48:58;19.50;80.90
37050;DHT22;22958;51.232;6.826;2023-04-20T13:51:23;20.30;77.60
37050;DHT22;22958;51.232;6.826;2023-04-20T13:53:48;23.10;72.20
37050;DHT22;22958;51.232;6.826;2023-04-20T13:56:15;21.50;68.70
37050;DHT22;22958;51.232;6.826;2023-04-20T13:58:41;22.30;68.20
37050;DHT22;22958;51.232;6.826;2023-04-20T14:01:13;22.00;66.60
37050;DHT22;22958;51.232;6.826;2023-04-20T14:03:41;23.10;63.50
37050;DHT22;22958;51.232;6.826;2023-04-20T14:06:07;23.30;60.50
37050;DHT22;22958;51.232;6.826;2023-04-20T14:08:33;23.80;59.30
37050;DHT22;22958;51.232;6.826;2023-04-20T14:10:58;23.10;57.00
37050;DHT22;22958;51.232;6.826;2023-04-20T14:13:24;23.00;57.00
37050;DHT22;22958;51.232;6.826;2023-04-20T14:15:52;24.10;56.20
37050;DHT22;22958;51.232;6.826;2023-04-20T14:18:17;24.80;53.70
37050;DHT22;22958;51.232;6.826;2023-04-20T14:20:43;23.40;54.70
37050;DHT22;22958;51.232;6.826;2023-04-20T14:23:08;22.40;55.60
37050;DHT22;22958;51.232;6.826;2023-04-20T14:25:34;21.80;57.10
37050;DHT22;22958;51.232;6.826;2023-04-20T14:27:59;21.80;56.00
37050;DHT22;22958;51.232;6.826;2023-04-20T14:30:25;20.90;56.60
37050;DHT22;22958;51.232;6.826;2023-04-20T14:32:56;21.60;56.10
37050;DHT22;22958;51.232;6.826;2023-04-20T14:35:22;22.00;56.10
37050;DHT22;22958;51.232;6.826;2023-04-20T14:37:47;21.50;56.10
37050;DHT22;22958;51.232;6.826;2023-04-20T14:40:13;21.60;55.20
37050;DHT22;22958;51.232;6.826;2023-04-20T14:42:39;21.50;54.40
37050;DHT22;22958;51.232;6.826;2023-04-20T14:45:06;20.70;55.80
37050;DHT22;22958;51.232;6.826;2023-04-20T14:47:31;20.60;56.80
37050;DHT22;22958;51.232;6.826;2023-04-20T14:49:57;20.80;56.10
37050;DHT22;22958;51.232;6.826;2023-04-20T14:52:23;21.20;54.80
37050;DHT22;22958;51.232;6.826;2023-04-20T14:54:48;21.60;55.20
37050;DHT22;22958;51.232;6.826;2023-04-20T14:57:14;20.60;54.80
37050;DHT22;22958;51.232;6.826;2023-04-20T14:59:40;20.00;56.40
37050;DHT22;22958;51.232;6.826;2023-04-20T15:02:06;19.40;57.10
37050;DHT22;22958;51.232;6.826;2023-04-20T15:04:32;19.20;57.90
37050;DHT22;22958;51.232;6.826;2023-04-20T15:06:58;19.60;58.30
37050;DHT22;22958;51.232;6.826;2023-04-20T15:09:23;18.90;59.00
37050;DHT22;22958;51.232;6.826;2023-04-20T15:11:49;19.10;59.30
37050;DHT22;22958;51.232;6.826;2023-04-20T15:14:15;19.30;57.80
37050;DHT22;22958;51.232;6.826;2023-04-20T15:16:40;18.70;58.60
37050;DHT22;22958;51.232;6.826;2023-04-20T15:19:06;17.80;59.90
37050;DHT22;22958;51.232;6.826;2023-04-20T15:21:32;18.00;59.80
37050;DHT22;22958;51.232;6.826;2023-04-20T15:23:57;17.50;59.50
37050;DHT22;22958;51.232;6.826;2023-04-20T15:26:23;16.90;61.40
37050;DHT22;22958;51.232;6.826;2023-04-20T15:28:48;16.50;64.00
37050;DHT22;22958;51.232;6.826;2023-04-20T15:31:17;16.50;64.40
37050;DHT22;22958;51.232;6.826;2023-04-20T15:33:44;16.40;65.40